createdAt,value
2022-09-05T00:02:51.516Z,15.7
2022-09-05T00:06:19.677Z,15.7
2022-09-05T00:09:47.827Z,15.7
2022-09-05T00:13:15.088Z,15.6
2022-09-05T00:16:50.686Z,15.6
2022-09-05T00:24:33.004Z,15.6
2022-09-05T00:28:36.442Z,15.6
2022-09-05T00:32:09.085Z,15.5
2022-09-05T00:35:44.144Z,15.5
2022-09-05T00:39:12.721Z,15.5
2022-09-05T00:42:32.103Z,15.4
2022-09-05T00:45:57.572Z,15.4
2022-09-05T00:49:20.908Z,15.4
2022-09-05T00:53:06.789Z,15.4
2022-09-05T00:56:41.817Z,15.3
2022-09-05T01:00:21.811Z,15.3
2022-09-05T01:03:43.595Z,15.2
2022-09-05T01:07:17.312Z,15.2
2022-09-05T01:10:56.857Z,15.2
2022-09-05T01:14:27.800Z,15.1
2022-09-05T01:18:00.328Z,15.1
2022-09-05T01:21:32.305Z,15.1
2022-09-05T01:25:15.025Z,15
2022-09-05T01:29:18.247Z,15
2022-09-05T01:32:44.008Z,15
2022-09-05T01:36:17.613Z,15
2022-09-05T01:40:11.469Z,14.9
2022-09-05T01:43:50.366Z,14.9
2022-09-05T01:47:31.849Z,14.9
2022-09-05T01:50:58.780Z,14.9
2022-09-05T01:54:31.717Z,14.9
2022-09-05T01:58:01.964Z,14.9
2022-09-05T02:01:34.004Z,14.8
2022-09-05T02:05:06.477Z,14.8
2022-09-05T02:08:45.362Z,14.8
2022-09-05T02:12:25.449Z,14.7
2022-09-05T02:15:59.839Z,14.7
2022-09-05T02:19:28.974Z,14.7
2022-09-05T02:22:59.606Z,14.7
2022-09-05T02:26:26.513Z,14.6
2022-09-05T02:29:58.681Z,14.6
2022-09-05T02:33:26.998Z,14.6
2022-09-05T02:36:56.764Z,14.6
2022-09-05T02:45:01.790Z,14.5
2022-09-05T02:48:45.092Z,14.4
2022-09-05T02:57:26.037Z,14.4
2022-09-05T03:01:20.067Z,14.4
2022-09-05T03:04:55.267Z,14.3
2022-09-05T03:08:31.785Z,14.3
2022-09-05T03:12:29.382Z,14.3
2022-09-05T03:16:36.470Z,14.3
2022-09-05T03:20:35.174Z,14.2
2022-09-05T03:24:20.866Z,14.2
2022-09-05T03:28:08.643Z,14.2
2022-09-05T03:32:23.902Z,14.1
2022-09-05T03:36:27.078Z,14.1
2022-09-05T03:40:23.945Z,14.1
2022-09-05T03:43:58.158Z,14.1
2022-09-05T03:47:37.590Z,14.1
2022-09-05T03:57:20.205Z,14.1
2022-09-05T04:01:35.860Z,14
2022-09-05T04:08:16.871Z,14
2022-09-05T04:11:58.807Z,14
2022-09-05T04:15:23.835Z,13.9
2022-09-05T04:18:55.822Z,13.9
2022-09-05T04:22:22.627Z,13.9
2022-09-05T04:26:09.287Z,13.9
2022-09-05T04:29:42.312Z,13.9
2022-09-05T04:33:16.216Z,13.9
2022-09-05T04:36:49.869Z,13.8
2022-09-05T04:40:29.741Z,13.8
2022-09-05T04:43:56.257Z,13.8
2022-09-05T04:47:20.593Z,13.8
2022-09-05T04:50:46.130Z,13.8
2022-09-05T04:54:38.909Z,13.8
2022-09-05T04:58:02.522Z,13.7
2022-09-05T05:06:00.811Z,13.7
2022-09-05T05:10:40.501Z,13.8
2022-09-05T05:19:07.245Z,13.7
2022-09-05T05:22:47.238Z,13.7
2022-09-05T05:26:20.392Z,13.8
2022-09-05T05:29:49.147Z,13.7
2022-09-05T05:33:12.407Z,13.8
2022-09-05T05:36:34.288Z,13.8
2022-09-05T05:40:01.126Z,13.8
2022-09-05T05:43:24.157Z,13.8
2022-09-05T05:46:44.007Z,13.8
2022-09-05T05:50:06.805Z,13.9
2022-09-05T05:53:49.007Z,13.9
2022-09-05T05:57:17.418Z,14
2022-09-05T06:00:56.674Z,14
2022-09-05T06:04:48.851Z,14
2022-09-05T06:13:03.617Z,14.1
2022-09-05T06:18:50.465Z,14.2
2022-09-05T06:22:37.211Z,14.2
2022-09-05T06:26:28.760Z,14.3
2022-09-05T06:30:11.170Z,14.4
2022-09-05T06:33:36.011Z,14.5
2022-09-05T06:37:12.942Z,14.5
2022-09-05T06:40:50.049Z,14.6
2022-09-05T06:44:24.004Z,14.7
2022-09-05T06:48:01.536Z,14.8
2022-09-05T06:51:31.953Z,14.9
2022-09-05T06:57:12.267Z,15
2022-09-05T07:01:02.596Z,15.2
2022-09-05T07:05:37.545Z,15.3
2022-09-05T07:09:13.334Z,15.4
2022-09-05T07:12:44.111Z,15.5
2022-09-05T07:16:10.139Z,15.6
2022-09-05T07:19:35.431Z,15.8
2022-09-05T07:23:38.250Z,15.9
2022-09-05T07:27:30.773Z,16.1
2022-09-05T07:30:56.662Z,16.2
2022-09-05T07:34:20.936Z,16.4
2022-09-05T07:37:43.866Z,16.5
2022-09-05T07:41:08.027Z,16.6
2022-09-05T07:44:35.839Z,16.8
2022-09-05T07:48:02.089Z,16.9
2022-09-05T07:56:55.620Z,17
2022-09-05T08:00:32.041Z,17.4
2022-09-05T08:03:51.923Z,17.5
2022-09-05T08:07:48.227Z,17.7
2022-09-05T08:11:23.672Z,17.8
2022-09-05T08:14:51.914Z,17.9
2022-09-05T08:18:14.873Z,18.1
2022-09-05T08:21:40.110Z,18.2
2022-09-05T08:25:06.079Z,18.3
2022-09-05T08:28:39.723Z,18.4
2022-09-05T08:32:13.019Z,18.6
2022-09-05T08:35:40.151Z,18.7
2022-09-05T08:39:11.981Z,18.8
2022-09-05T08:42:34.167Z,19
2022-09-05T08:46:43.692Z,19.1
2022-09-05T08:50:15.725Z,19.3
2022-09-05T08:53:53.519Z,19.5
2022-09-05T08:57:21.506Z,19.7
2022-09-05T09:00:56.462Z,19.8
2022-09-05T09:05:00.705Z,20
2022-09-05T09:09:10.740Z,20.2
2022-09-05T09:12:38.656Z,20.4
2022-09-05T09:16:16.305Z,20.5
2022-09-05T09:19:47.942Z,20.6
2022-09-05T09:23:31.949Z,20.8
2022-09-05T09:27:03.036Z,21
2022-09-05T09:30:35.998Z,21.1
2022-09-05T09:34:01.393Z,21.2
2022-09-05T09:37:51.963Z,21.4
2022-09-05T09:41:26.718Z,21.7
2022-09-05T09:45:26.111Z,22.3
2022-09-05T09:49:02.820Z,22.8
2022-09-05T09:52:45.598Z,23.2
2022-09-05T09:56:18.522Z,23.6
2022-09-05T10:00:16.637Z,24
2022-09-05T10:10:34.294Z,24.3
2022-09-05T10:14:36.728Z,25.1
2022-09-05T10:18:13.555Z,25.4
2022-09-05T10:21:47.386Z,25.5
2022-09-05T10:25:28.058Z,25.7
2022-09-05T10:29:38.270Z,25.9
2022-09-05T10:35:10.731Z,26.1
2022-09-05T10:38:47.550Z,26.4
2022-09-05T10:42:11.320Z,26.6
2022-09-05T10:45:38.538Z,26.8
2022-09-05T10:49:10.676Z,27.2
2022-09-05T10:52:34.670Z,27.4
2022-09-05T10:56:06.740Z,27.5
2022-09-05T11:02:28.888Z,27.7
2022-09-05T11:06:08.834Z,28
2022-09-05T11:09:38.565Z,28.3
2022-09-05T11:13:05.218Z,28.4
2022-09-05T11:16:31.593Z,28.6
2022-09-05T11:20:02.490Z,28.9
2022-09-05T11:23:33.167Z,29.1
2022-09-05T11:27:23.447Z,29.2
2022-09-05T11:30:55.497Z,29.3
2022-09-05T11:39:46.309Z,29.5
2022-09-05T11:44:24.814Z,30
2022-09-05T11:48:35.174Z,30
2022-09-05T11:52:26.993Z,30
2022-09-05T11:56:10.501Z,30.3
2022-09-05T11:59:48.347Z,30.5
2022-09-05T12:03:13.444Z,30.4
2022-09-05T12:42:10.624Z,31.4
2022-09-05T12:45:44.056Z,35.5
2022-09-05T12:49:11.138Z,35.6
2022-09-05T12:52:42.080Z,35.8
2022-09-05T12:57:33.296Z,36
2022-09-05T13:03:27.193Z,35.7
2022-09-05T13:07:02.909Z,35.6
2022-09-05T13:14:49.894Z,35.4
2022-09-05T13:18:23.254Z,36
2022-09-05T13:21:52.228Z,36
2022-09-05T13:25:14.160Z,36
2022-09-05T13:28:43.188Z,36
2022-09-05T13:37:58.553Z,36
2022-09-05T13:41:50.130Z,36.7
2022-09-05T13:45:15.746Z,36.9
2022-09-05T13:49:27.068Z,37
2022-09-05T13:53:09.568Z,37.1
2022-09-05T13:56:36.718Z,37.2
2022-09-05T14:00:15.235Z,37.1
2022-09-05T14:04:04.283Z,37.3
2022-09-05T14:07:59.097Z,37.2
2022-09-05T14:11:33.205Z,37.4
2022-09-05T14:15:13.645Z,37.5
2022-09-05T14:18:40.508Z,37.1
2022-09-05T14:22:34.953Z,36.7
2022-09-05T14:25:58.396Z,36.5
2022-09-05T14:29:30.920Z,36.4
2022-09-05T14:37:46.431Z,36.4
2022-09-05T14:40:52.859Z,36.8
2022-09-05T14:44:15.649Z,36.7
2022-09-05T14:47:36.086Z,36.4
2022-09-05T14:50:40.687Z,36.1
2022-09-05T14:54:02.327Z,35.7
2022-09-05T15:00:47.450Z,35.3
2022-09-05T15:05:45.898Z,34.6
2022-09-05T15:11:08.844Z,34.3
2022-09-05T15:15:14.329Z,33.9
2022-09-05T15:18:10.311Z,33.7
2022-09-05T15:21:06.687Z,33.5
2022-09-05T15:24:14.262Z,33.4
2022-09-05T15:27:07.872Z,33.4
2022-09-05T15:30:03.903Z,33.2
2022-09-05T15:32:53.215Z,33
2022-09-05T15:36:06.149Z,32.9
2022-09-05T15:39:02.347Z,32.8
2022-09-05T15:42:06.488Z,32.6
2022-09-05T15:45:10.564Z,32.5
2022-09-05T15:48:06.167Z,32.2
2022-09-05T15:51:02.746Z,31.9
2022-09-05T15:54:38.579Z,31.6
2022-09-05T15:57:34.571Z,31.3
2022-09-05T16:00:30.697Z,31.3
2022-09-05T16:06:28.670Z,31.5
2022-09-05T16:13:36.723Z,32.4
2022-09-05T16:23:21.146Z,32.9
2022-09-05T16:26:29.842Z,32.4
2022-09-05T16:29:26.806Z,31.9
2022-09-05T16:32:20.593Z,31.5
2022-09-05T16:35:14.028Z,31.2
2022-09-05T16:38:03.042Z,30.9
2022-09-05T16:41:01.469Z,30.6
2022-09-05T16:43:53.570Z,30.4
2022-09-05T16:46:45.562Z,30.1
2022-09-05T16:49:54.531Z,29.8
2022-09-05T16:52:53.266Z,29.8
2022-09-05T16:55:51.946Z,30.9
2022-09-05T16:58:42.823Z,31.7
2022-09-05T17:01:34.578Z,32.2
2022-09-05T17:05:04.225Z,32.5
2022-09-05T17:07:58.314Z,32.6
2022-09-05T17:10:58.030Z,32.6
2022-09-05T17:13:53.450Z,32.5
2022-09-05T17:16:51.837Z,32.5
2022-09-05T17:20:03.265Z,32.4
2022-09-05T17:27:19.925Z,32.3
2022-09-05T17:32:42.032Z,32.1
2022-09-05T17:35:32.757Z,32
2022-09-05T17:38:37.441Z,31.9
2022-09-05T17:41:43.914Z,31.7
2022-09-05T17:44:47.828Z,31.6
2022-09-05T17:47:51.012Z,31.5
2022-09-05T17:50:40.736Z,31.3
2022-09-05T17:53:35.834Z,30.9
2022-09-05T17:57:07.249Z,30.7
2022-09-05T18:00:31.766Z,30.5
2022-09-05T18:04:11.334Z,30.5
2022-09-05T18:07:31.164Z,29
2022-09-05T18:10:51.798Z,27.1
2022-09-05T18:13:49.518Z,25.7
2022-09-05T18:17:35.108Z,24.6
2022-09-05T18:33:55.106Z,21.4
2022-09-05T18:37:26.191Z,21
2022-09-05T18:40:37.807Z,20.8
2022-09-05T18:43:37.585Z,20.6
2022-09-05T18:46:36.384Z,20.4
2022-09-05T18:50:21.777Z,20.2
2022-09-05T18:53:18.860Z,20.1
2022-09-05T18:56:19.945Z,19.9
2022-09-05T18:59:16.811Z,19.8
2022-09-05T19:02:09.045Z,19.6
2022-09-05T19:05:42.805Z,19.5
2022-09-05T19:08:39.388Z,19.4
2022-09-05T19:11:32.268Z,19.3
2022-09-05T19:14:29.257Z,19.2
2022-09-05T19:17:23.854Z,19.1
2022-09-05T19:20:32.202Z,19
2022-09-05T19:23:50.380Z,19
2022-09-05T19:26:40.644Z,18.9
2022-09-05T19:36:46.139Z,18.8
2022-09-05T19:45:45.935Z,18.7
2022-09-05T19:50:33.748Z,18.5
2022-09-05T19:53:21.484Z,18.4
2022-09-05T19:56:09.871Z,18.4
2022-09-05T19:58:58.227Z,18.4
2022-09-05T20:01:46.188Z,18.3
2022-09-05T20:04:36.303Z,18.3
2022-09-05T20:07:33.017Z,18.2
2022-09-05T20:10:34.080Z,18.2
2022-09-05T20:13:22.210Z,18.1
2022-09-05T20:16:10.640Z,18.1
2022-09-05T20:18:59.038Z,18.1
2022-09-05T20:21:46.747Z,18
2022-09-05T20:24:34.488Z,18
2022-09-05T20:27:27.170Z,18
2022-09-05T20:30:15.912Z,18
2022-09-05T20:33:10.235Z,17.9
2022-09-05T20:43:08.463Z,17.9
2022-09-05T20:50:40.016Z,17.7
2022-09-05T20:57:13.799Z,17.6
2022-09-05T21:00:04.193Z,17.5
2022-09-05T21:03:00.319Z,17.5
2022-09-05T21:05:48.274Z,17.4
2022-09-05T21:08:37.033Z,17.4
2022-09-05T21:11:25.445Z,17.4
2022-09-05T21:14:15.907Z,17.4
2022-09-05T21:17:15.620Z,17.4
2022-09-05T21:20:07.450Z,17.4
2022-09-05T21:22:56.257Z,17.3
2022-09-05T21:25:44.517Z,17.3
2022-09-05T21:28:36.997Z,17.3
2022-09-05T21:31:27.028Z,17.2
2022-09-05T21:34:15.966Z,17.2
2022-09-05T21:37:10.418Z,17.2
2022-09-05T21:40:01.105Z,17.1
2022-09-05T21:46:34.340Z,17.1
2022-09-05T21:50:34.934Z,17
2022-09-05T21:55:14.810Z,16.9
2022-09-05T22:02:20.200Z,16.8
2022-09-05T22:05:08.227Z,16.7
2022-09-05T22:07:55.754Z,16.7
2022-09-05T22:10:49.244Z,16.6
2022-09-05T22:13:40.323Z,16.6
2022-09-05T22:16:44.980Z,16.5
2022-09-05T22:19:37.483Z,16.5
2022-09-05T22:22:25.839Z,16.5
2022-09-05T22:25:16.626Z,16.4
2022-09-05T22:28:11.898Z,16.4
2022-09-05T22:31:07.125Z,16.3
2022-09-05T22:33:55.605Z,16.3
2022-09-05T22:36:43.780Z,16.2
2022-09-05T22:39:37.684Z,16.2
2022-09-05T22:42:26.636Z,16.1
2022-09-05T22:45:14.118Z,16.1
2022-09-05T22:48:01.754Z,16
2022-09-05T22:50:53.969Z,16
2022-09-05T22:53:42.786Z,15.9
2022-09-05T22:56:30.249Z,15.9
2022-09-05T22:59:20.419Z,15.8
2022-09-05T23:02:07.998Z,15.8
2022-09-05T23:04:55.543Z,15.7
2022-09-05T23:07:43.241Z,15.7
2022-09-05T23:10:30.933Z,15.7
2022-09-05T23:13:19.917Z,15.7
2022-09-05T23:16:07.551Z,15.6
2022-09-05T23:18:56.053Z,15.6
2022-09-05T23:21:43.565Z,15.5
2022-09-05T23:24:31.086Z,15.5
2022-09-05T23:27:18.709Z,15.5
2022-09-05T23:30:06.187Z,15.5
2022-09-05T23:32:55.764Z,15.4
2022-09-05T23:35:43.384Z,15.3
2022-09-05T23:38:30.953Z,15.3
2022-09-05T23:41:19.354Z,15.3
2022-09-05T23:44:07.103Z,15.2
2022-09-05T23:46:54.587Z,15.2
2022-09-05T23:49:42.452Z,15.2
2022-09-05T23:52:30.234Z,15.1
2022-09-05T23:55:23.495Z,15.1
2022-09-05T23:58:11.866Z,15.1
